Time;durP1;ratioP1;P1;durP2;ratioP2;P2;SDS_P1;SDS_P2;PMS_P1;PMS_P2;Temp;Humidity;BMP_temperature;BMP_pressure;BME280_temperature;BME280_humidity;BME280_pressure;Samples;Min_cycle;Max_cycle;Signal;HPM_P1;HPM_P2
2021/12/17 00:01:53;;;;;;;22.67;9.02;;;;;;;;;;5018232;28;20140;-69
2021/12/17 00:04:28;;;;;;;19.63;7.82;;;;;;;;;;5026331;28;20511;-69
2021/12/17 00:06:58;;;;;;;21.65;9.23;;;;;;;;;;5017671;28;20052;-69
2021/12/17 00:09:26;;;;;;;18.35;8.40;;;;;;;;;;5019637;28;20140;-69
2021/12/17 00:11:55;;;;;;;19.70;8.50;;;;;;;;;;5024030;28;20145;-68
2021/12/17 00:14:27;;;;;;;24.35;9.27;;;;;;;;;;5012844;28;20141;-69
2021/12/17 00:16:55;;;;;;;20.77;8.95;;;;;;;;;;5016302;28;20136;-69
2021/12/17 00:19:38;;;;;;;25.02;9.23;;;;;;;;;;5016484;28;20084;-69
2021/12/17 00:50:02;;;;;;;17.77;8.45;;;;;;;;;;4991380;28;20129;-69
2021/12/17 00:52:33;;;;;;;18.02;8.70;;;;;;;;;;5017950;28;20132;-69
2021/12/17 00:55:03;;;;;;;19.25;8.43;;;;;;;;;;5026104;28;20139;-69
2021/12/17 00:57:36;;;;;;;17.77;8.13;;;;;;;;;;5017607;28;20066;-69
2021/12/17 01:00:06;;;;;;;15.70;7.97;;;;;;;;;;5012183;28;20056;-69
2021/12/17 01:02:36;;;;;;;21.85;9.20;;;;;;;;;;5023530;28;20041;-69
2021/12/17 01:05:07;;;;;;;22.13;8.52;;;;;;;;;;5012313;28;20053;-69
2021/12/17 01:07:36;;;;;;;20.80;8.82;;;;;;;;;;5015760;28;20557;-69
2021/12/17 01:10:08;;;;;;;20.95;8.63;;;;;;;;;;5018190;28;20045;-68
2021/12/17 01:12:37;;;;;;;18.02;8.15;;;;;;;;;;5015413;28;20087;-69
2021/12/17 01:15:07;;;;;;;19.05;8.63;;;;;;;;;;5022128;28;20140;-69
2021/12/17 01:17:39;;;;;;;20.25;8.35;;;;;;;;;;5015805;28;20445;-69
2021/12/17 01:20:35;;;;;;;17.60;7.57;;;;;;;;;;5016171;28;20511;-69
2021/12/17 01:23:18;;;;;;;18.63;7.57;;;;;;;;;;4992980;28;20373;-69
2021/12/17 01:35:20;;;;;;;20.63;8.05;;;;;;;;;;5014040;28;20136;-69
2021/12/17 01:37:33;;;;;;;19.45;7.85;;;;;;;;;;5015677;28;20498;-69
2021/12/17 01:42:37;;;;;;;18.40;8.77;;;;;;;;;;5010476;28;20060;-69
2021/12/17 01:45:06;;;;;;;18.52;7.63;;;;;;;;;;5017278;28;20536;-69
2021/12/17 01:47:35;;;;;;;19.50;8.00;;;;;;;;;;5017713;28;20049;-68
2021/12/17 01:56:01;;;;;;;19.85;8.48;;;;;;;;;;5020442;28;20135;-68
2021/12/17 02:01:19;;;;;;;18.88;7.85;;;;;;;;;;5011060;28;20502;-69
2021/12/17 02:03:48;;;;;;;19.83;8.00;;;;;;;;;;5012999;28;20054;-68
2021/12/17 02:06:18;;;;;;;18.23;7.40;;;;;;;;;;5013342;28;20532;-68
2021/12/17 02:08:47;;;;;;;17.95;7.80;;;;;;;;;;5010318;28;20053;-69
2021/12/17 02:11:53;;;;;;;15.05;7.25;;;;;;;;;;5017674;28;20045;-69
2021/12/17 02:20:11;;;;;;;18.23;7.47;;;;;;;;;;5015674;28;20140;-69
2021/12/17 02:31:22;;;;;;;16.27;7.40;;;;;;;;;;5005655;28;20543;-69
2021/12/17 02:33:50;;;;;;;17.88;7.47;;;;;;;;;;5005587;28;20053;-69
2021/12/17 02:36:22;;;;;;;14.90;7.40;;;;;;;;;;5002925;28;20088;-68
2021/12/17 02:38:52;;;;;;;15.07;7.07;;;;;;;;;;5003572;28;20053;-69
2021/12/17 02:46:53;;;;;;;17.17;7.30;;;;;;;;;;5008807;28;20053;-69
2021/12/17 02:49:22;;;;;;;18.83;7.43;;;;;;;;;;5018572;28;20655;-69
2021/12/17 02:51:51;;;;;;;16.48;6.65;;;;;;;;;;5015778;28;20587;-69
2021/12/17 02:54:21;;;;;;;14.52;7.03;;;;;;;;;;5018231;28;20136;-69
2021/12/17 02:56:49;;;;;;;14.90;6.90;;;;;;;;;;5015820;28;20140;-69
2021/12/17 02:59:18;;;;;;;15.38;6.70;;;;;;;;;;5015656;28;20042;-69
2021/12/17 03:01:46;;;;;;;15.88;7.45;;;;;;;;;;5015587;28;20417;-69
2021/12/17 03:04:14;;;;;;;14.98;6.97;;;;;;;;;;5023850;28;20396;-69
2021/12/17 03:06:42;;;;;;;16.33;6.55;;;;;;;;;;5021004;28;20072;-68
2021/12/17 03:09:11;;;;;;;16.13;7.70;;;;;;;;;;5018891;28;20140;-69
2021/12/17 03:11:41;;;;;;;13.05;6.30;;;;;;;;;;5027282;28;20052;-69
2021/12/17 03:14:09;;;;;;;14.90;6.97;;;;;;;;;;5024806;28;20128;-69
2021/12/17 03:16:41;;;;;;;13.38;6.72;;;;;;;;;;5027207;28;20060;-69
2021/12/17 03:19:14;;;;;;;14.07;6.20;;;;;;;;;;5020031;28;20136;-69
2021/12/17 03:24:28;;;;;;;15.63;6.57;;;;;;;;;;5027576;28;20144;-69
2021/12/17 03:26:58;;;;;;;16.90;7.47;;;;;;;;;;5013994;28;20051;-69
2021/12/17 03:29:26;;;;;;;15.43;7.05;;;;;;;;;;5018684;28;20055;-69
2021/12/17 03:31:54;;;;;;;14.70;6.47;;;;;;;;;;5016280;28;20048;-69
2021/12/17 03:34:23;;;;;;;15.55;7.45;;;;;;;;;;5022987;28;20142;-69
2021/12/17 03:36:53;;;;;;;11.73;6.30;;;;;;;;;;5015135;28;20049;-68
2021/12/17 03:39:23;;;;;;;14.25;6.47;;;;;;;;;;5013543;28;20561;-69
2021/12/17 03:41:51;;;;;;;16.58;6.57;;;;;;;;;;5011384;28;20582;-69
2021/12/17 03:44:26;;;;;;;13.80;6.25;;;;;;;;;;426085;28;10023958;-69
2021/12/17 03:46:54;;;;;;;15.85;6.40;;;;;;;;;;5019252;28;20274;-68
2021/12/17 03:49:23;;;;;;;11.57;6.28;;;;;;;;;;5014100;28;20054;-68
2021/12/17 03:52:03;;;;;;;14.32;6.47;;;;;;;;;;5013786;28;20149;-69
2021/12/17 03:54:32;;;;;;;15.15;6.55;;;;;;;;;;5015222;28;20133;-68
2021/12/17 03:57:00;;;;;;;16.35;7.05;;;;;;;;;;5013034;28;20060;-69
2021/12/17 03:59:30;;;;;;;14.48;6.43;;;;;;;;;;5018905;28;20045;-69
2021/12/17 04:01:58;;;;;;;14.85;7.05;;;;;;;;;;5026584;28;20124;-69
2021/12/17 04:04:26;;;;;;;15.48;6.25;;;;;;;;;;5016812;28;20071;-69
2021/12/17 04:06:55;;;;;;;15.82;7.28;;;;;;;;;;5015291;28;20073;-69
2021/12/17 04:09:29;;;;;;;14.73;6.95;;;;;;;;;;5014412;28;20045;-69
2021/12/17 04:11:57;;;;;;;15.38;6.38;;;;;;;;;;5012626;28;20534;-69
2021/12/17 04:14:33;;;;;;;14.15;6.57;;;;;;;;;;5016578;28;20524;-69
2021/12/17 04:17:05;;;;;;;16.77;6.07;;;;;;;;;;5012889;28;20100;-69
2021/12/17 04:19:34;;;;;;;14.90;6.82;;;;;;;;;;5019430;28;20100;-69
2021/12/17 04:22:03;;;;;;;13.98;5.57;;;;;;;;;;5025752;28;20045;-69
2021/12/17 04:24:31;;;;;;;15.25;6.85;;;;;;;;;;5016026;28;20100;-69
2021/12/17 04:27:00;;;;;;;15.35;6.00;;;;;;;;;;5010694;28;20746;-69
2021/12/17 04:29:28;;;;;;;16.30;6.75;;;;;;;;;;5015002;28;20507;-68
2021/12/17 04:31:57;;;;;;;15.25;7.13;;;;;;;;;;5015331;28;20077;-69
2021/12/17 04:34:26;;;;;;;14.07;6.22;;;;;;;;;;5012433;28;20514;-68
2021/12/17 04:36:56;;;;;;;14.57;6.60;;;;;;;;;;5016337;28;20144;-69
2021/12/17 04:39:25;;;;;;;15.77;6.68;;;;;;;;;;5013797;28;20132;-69
2021/12/17 04:41:57;;;;;;;16.40;6.57;;;;;;;;;;5014279;28;20140;-69
2021/12/17 04:44:28;;;;;;;16.13;7.22;;;;;;;;;;5016080;28;20484;-69
2021/12/17 04:57:13;;;;;;;16.75;7.00;;;;;;;;;;5017869;28;20153;-68
2021/12/17 04:58:06;;;;;;;12.18;5.90;;;;;;;;;;5011794;28;20574;-69
2021/12/17 05:00:35;;;;;;;17.15;7.32;;;;;;;;;;5017508;28;20075;-69
2021/12/17 05:03:03;;;;;;;13.32;6.60;;;;;;;;;;5024715;28;20057;-68
2021/12/17 05:05:33;;;;;;;15.98;7.07;;;;;;;;;;5024719;28;20077;-67
2021/12/17 05:08:05;;;;;;;13.70;6.30;;;;;;;;;;5018829;28;20095;-69
2021/12/17 05:10:51;;;;;;;12.95;6.82;;;;;;;;;;5014594;28;20045;-69
2021/12/17 05:19:01;;;;;;;12.75;6.20;;;;;;;;;;5009590;28;20564;-69
2021/12/17 05:21:29;;;;;;;;;;;;;;;;;;5013606;28;20046;-69
2021/12/17 05:23:59;;;;;;;13.40;5.70;;;;;;;;;;5015764;28;19921;-68
2021/12/17 05:26:27;;;;;;;13.32;6.28;;;;;;;;;;5019298;28;20140;-68
2021/12/17 05:28:55;;;;;;;17.50;6.97;;;;;;;;;;5010086;28;20168;-69
2021/12/17 05:31:25;;;;;;;16.35;7.22;;;;;;;;;;5010239;28;20512;-69
2021/12/17 05:33:54;;;;;;;13.68;6.05;;;;;;;;;;5021696;28;20501;-69
2021/12/17 05:36:22;;;;;;;14.25;7.07;;;;;;;;;;5017276;28;20340;-68
2021/12/17 05:38:50;;;;;;;12.38;6.20;;;;;;;;;;5012309;28;20053;-69
2021/12/17 05:41:21;;;;;;;14.35;6.45;;;;;;;;;;5030109;28;20408;-68
2021/12/17 05:43:55;;;;;;;13.57;6.45;;;;;;;;;;5010450;28;20168;-68
2021/12/17 05:46:37;;;;;;;11.60;6.22;;;;;;;;;;5023191;28;20087;-68
2021/12/17 05:49:06;;;;;;;13.38;6.53;;;;;;;;;;5018029;28;20107;-69
2021/12/17 05:51:34;;;;;;;12.52;6.40;;;;;;;;;;5018698;28;20103;-69
2021/12/17 05:54:03;;;;;;;13.70;5.90;;;;;;;;;;5019491;28;20149;-69
2021/12/17 05:56:32;;;;;;;13.10;5.82;;;;;;;;;;5014020;28;20045;-69
2021/12/17 05:59:01;;;;;;;11.93;6.15;;;;;;;;;;5016672;28;20042;-69
2021/12/17 06:01:29;;;;;;;11.65;5.95;;;;;;;;;;5011662;28;20141;-69
2021/12/17 06:03:57;;;;;;;16.05;6.00;;;;;;;;;;5021887;28;20071;-69
2021/12/17 06:06:26;;;;;;;9.80;5.35;;;;;;;;;;5023610;28;20041;-69
2021/12/17 06:08:55;;;;;;;12.68;6.00;;;;;;;;;;5018169;28;20045;-69
2021/12/17 06:11:24;;;;;;;12.45;5.75;;;;;;;;;;5013840;28;20052;-68
2021/12/17 06:13:53;;;;;;;13.52;5.85;;;;;;;;;;5007317;28;20136;-69
2021/12/17 06:16:22;;;;;;;9.48;5.10;;;;;;;;;;5010633;28;22184;-68
2021/12/17 06:18:50;;;;;;;9.98;6.22;;;;;;;;;;5010170;28;20045;-69
2021/12/17 06:21:19;;;;;;;9.32;5.18;;;;;;;;;;5012441;28;20072;-69
2021/12/17 06:23:47;;;;;;;9.70;5.32;;;;;;;;;;5007576;28;20141;-69
2021/12/17 06:26:16;;;;;;;14.10;6.28;;;;;;;;;;5017430;28;20100;-68
2021/12/17 06:28:45;;;;;;;11.55;5.10;;;;;;;;;;5010393;28;20390;-69
2021/12/17 06:31:14;;;;;;;11.57;5.55;;;;;;;;;;5011524;28;20077;-69
2021/12/17 06:33:43;;;;;;;12.40;5.72;;;;;;;;;;5015985;28;20045;-68
2021/12/17 06:36:11;;;;;;;13.55;6.18;;;;;;;;;;5005697;28;20593;-69
2021/12/17 06:38:39;;;;;;;9.35;5.68;;;;;;;;;;5010324;28;20509;-69
2021/12/17 06:41:08;;;;;;;11.93;5.22;;;;;;;;;;5005131;28;20046;-69
2021/12/17 06:43:39;;;;;;;10.90;4.82;;;;;;;;;;5013955;28;20149;-69
2021/12/17 06:46:21;;;;;;;11.43;5.63;;;;;;;;;;5012815;28;20137;-69
2021/12/17 06:48:57;;;;;;;8.30;4.93;;;;;;;;;;5021240;28;20084;-69
2021/12/17 07:00:10;;;;;;;8.15;4.97;;;;;;;;;;5020619;28;20151;-68
2021/12/17 07:10:59;;;;;;;8.35;4.10;;;;;;;;;;5018886;28;20056;-69
2021/12/17 07:19:57;;;;;;;9.10;4.45;;;;;;;;;;5013538;28;20046;-69
2021/12/17 07:22:15;;;;;;;8.60;4.00;;;;;;;;;;5015676;28;20124;-69
2021/12/17 07:28:03;;;;;;;7.55;4.05;;;;;;;;;;5017213;28;20056;-69
2021/12/17 07:33:20;;;;;;;7.10;4.20;;;;;;;;;;4961124;28;20450;-69
2021/12/17 07:35:53;;;;;;;8.02;4.75;;;;;;;;;;5017779;28;20140;-68
2021/12/17 07:38:47;;;;;;;8.77;4.60;;;;;;;;;;5017208;28;20144;-69
2021/12/17 07:41:16;;;;;;;8.65;4.13;;;;;;;;;;5015441;28;20132;-68
2021/12/17 07:43:53;;;;;;;8.27;4.53;;;;;;;;;;5016048;28;20085;-69
2021/12/17 07:46:21;;;;;;;9.63;4.43;;;;;;;;;;5009450;28;20122;-69
2021/12/17 07:48:49;;;;;;;8.43;4.57;;;;;;;;;;5018018;28;20045;-69
2021/12/17 07:51:19;;;;;;;7.93;4.47;;;;;;;;;;5012415;28;20042;-69
2021/12/17 07:53:49;;;;;;;10.07;4.70;;;;;;;;;;5020268;28;20116;-68
2021/12/17 07:56:19;;;;;;;12.35;5.32;;;;;;;;;;5025471;28;20050;-69
2021/12/17 07:58:48;;;;;;;7.35;4.57;;;;;;;;;;5012050;28;20413;-69
2021/12/17 08:01:16;;;;;;;11.43;4.63;;;;;;;;;;5011171;28;20041;-69
2021/12/17 08:03:45;;;;;;;9.25;3.60;;;;;;;;;;5020004;28;20052;-69
2021/12/17 08:06:14;;;;;;;5.03;3.22;;;;;;;;;;5019117;28;20495;-68
2021/12/17 08:08:42;;;;;;;8.50;4.07;;;;;;;;;;5011562;28;20046;-69
2021/12/17 08:11:12;;;;;;;5.68;3.40;;;;;;;;;;5015986;28;20088;-69
2021/12/17 08:13:43;;;;;;;6.72;3.80;;;;;;;;;;5021436;28;20103;-69
2021/12/17 08:16:21;;;;;;;7.50;3.67;;;;;;;;;;5031288;28;20054;-69
2021/12/17 08:19:08;;;;;;;5.65;3.20;;;;;;;;;;5016425;28;21679;-70
2021/12/17 08:27:26;;;;;;;8.80;4.10;;;;;;;;;;5023180;28;20049;-69
2021/12/17 08:30:08;;;;;;;4.70;2.97;;;;;;;;;;5006488;28;20050;-69
2021/12/17 08:32:37;;;;;;;6.13;4.15;;;;;;;;;;5015271;28;20058;-70
2021/12/17 08:35:08;;;;;;;5.63;3.30;;;;;;;;;;5018006;28;20116;-69
2021/12/17 08:37:37;;;;;;;5.82;3.40;;;;;;;;;;5015847;28;20412;-69
2021/12/17 08:40:06;;;;;;;4.13;2.80;;;;;;;;;;5019876;28;20058;-70
2021/12/17 08:42:37;;;;;;;5.88;3.40;;;;;;;;;;5014750;28;21898;-69
2021/12/17 08:45:08;;;;;;;7.05;3.40;;;;;;;;;;5017057;28;20478;-69
2021/12/17 08:47:37;;;;;;;5.13;2.72;;;;;;;;;;5014414;28;20042;-69
2021/12/17 08:50:08;;;;;;;7.10;3.35;;;;;;;;;;5004297;28;20049;-69
2021/12/17 08:52:37;;;;;;;5.50;3.22;;;;;;;;;;5011428;28;20115;-69
2021/12/17 08:55:06;;;;;;;9.27;4.53;;;;;;;;;;5011270;28;20056;-69
2021/12/17 08:57:35;;;;;;;7.18;3.67;;;;;;;;;;5017328;28;20417;-70
2021/12/17 09:00:07;;;;;;;9.02;4.57;;;;;;;;;;5021177;28;20053;-70
2021/12/17 09:02:37;;;;;;;7.10;3.63;;;;;;;;;;5015995;28;20045;-69
2021/12/17 09:05:07;;;;;;;8.52;4.53;;;;;;;;;;5017502;28;20248;-69
2021/12/17 09:07:36;;;;;;;8.68;4.35;;;;;;;;;;5013122;28;20128;-69
2021/12/17 09:10:06;;;;;;;7.10;3.92;;;;;;;;;;5015292;28;20050;-70
2021/12/17 09:12:37;;;;;;;7.00;3.95;;;;;;;;;;5022033;28;20053;-70
2021/12/17 09:15:08;;;;;;;8.35;4.20;;;;;;;;;;5016989;28;20462;-69
2021/12/17 09:17:37;;;;;;;7.35;3.40;;;;;;;;;;5020580;28;20053;-69
2021/12/17 09:20:07;;;;;;;5.45;3.55;;;;;;;;;;5018903;28;20053;-69
2021/12/17 09:22:36;;;;;;;6.43;3.97;;;;;;;;;;5014827;28;20064;-69
2021/12/17 09:25:05;;;;;;;7.90;3.63;;;;;;;;;;5019381;28;20062;-69
2021/12/17 09:27:34;;;;;;;6.75;3.88;;;;;;;;;;5016588;28;20465;-70
2021/12/17 09:30:03;;;;;;;5.97;3.80;;;;;;;;;;5010154;28;20092;-69
2021/12/17 09:32:34;;;;;;;7.03;3.90;;;;;;;;;;5014991;28;20434;-70
2021/12/17 09:35:03;;;;;;;6.25;3.65;;;;;;;;;;5011252;28;20049;-69
2021/12/17 09:37:32;;;;;;;7.65;3.67;;;;;;;;;;5016282;28;20437;-69
2021/12/17 09:40:01;;;;;;;7.35;3.75;;;;;;;;;;5014045;28;20053;-69
2021/12/17 09:42:30;;;;;;;7.22;3.75;;;;;;;;;;5017138;28;20390;-70
2021/12/17 09:44:58;;;;;;;7.78;4.18;;;;;;;;;;5019049;28;20038;-69
2021/12/17 09:47:27;;;;;;;8.13;4.43;;;;;;;;;;5013856;28;20049;-70
2021/12/17 09:49:58;;;;;;;7.28;4.13;;;;;;;;;;5015318;28;20050;-70
2021/12/17 09:52:28;;;;;;;8.20;4.57;;;;;;;;;;5015898;28;20052;-70
2021/12/17 09:54:57;;;;;;;9.07;4.10;;;;;;;;;;5020124;28;20409;-69
2021/12/17 09:57:26;;;;;;;8.32;4.10;;;;;;;;;;5020883;28;20056;-70
2021/12/17 09:59:56;;;;;;;8.18;4.20;;;;;;;;;;5014117;28;20092;-70
2021/12/17 10:02:24;;;;;;;8.27;4.35;;;;;;;;;;5011602;28;20052;-70
2021/12/17 10:04:56;;;;;;;9.52;4.80;;;;;;;;;;5011497;28;21420;-70
2021/12/17 10:07:27;;;;;;;8.40;4.57;;;;;;;;;;5015062;28;20053;-69
2021/12/17 10:09:57;;;;;;;9.25;4.80;;;;;;;;;;5014684;28;20045;-69
2021/12/17 10:12:26;;;;;;;9.35;4.65;;;;;;;;;;5012747;28;20136;-69
2021/12/17 10:15:04;;;;;;;8.77;4.88;;;;;;;;;;5013278;28;20049;-70
2021/12/17 10:17:34;;;;;;;7.68;4.35;;;;;;;;;;5016158;28;20051;-70
2021/12/17 10:20:07;;;;;;;8.70;4.38;;;;;;;;;;5015492;28;20153;-69
2021/12/17 10:22:38;;;;;;;9.90;4.72;;;;;;;;;;5011125;28;20052;-70
2021/12/17 10:25:08;;;;;;;10.45;5.00;;;;;;;;;;5008969;28;20516;-70
2021/12/17 10:27:38;;;;;;;13.25;4.88;;;;;;;;;;5014217;28;20112;-70
2021/12/17 10:30:12;;;;;;;8.05;4.25;;;;;;;;;;5012990;28;20104;-70
2021/12/17 10:32:41;;;;;;;10.27;4.78;;;;;;;;;;5017301;28;20050;-70
2021/12/17 10:35:12;;;;;;;6.97;4.00;;;;;;;;;;5014333;28;20146;-69
2021/12/17 10:37:43;;;;;;;8.30;5.05;;;;;;;;;;5021567;28;20053;-69
2021/12/17 10:40:17;;;;;;;7.85;4.18;;;;;;;;;;5019045;28;20108;-71
2021/12/17 10:42:55;;;;;;;7.15;4.38;;;;;;;;;;5011128;28;20108;-71
2021/12/17 10:45:27;;;;;;;11.20;5.20;;;;;;;;;;5009722;28;20313;-71
2021/12/17 10:48:13;;;;;;;10.52;5.15;;;;;;;;;;5009594;28;20156;-70
2021/12/17 10:50:41;;;;;;;8.85;4.72;;;;;;;;;;5010377;28;20065;-71
2021/12/17 10:53:11;;;;;;;9.38;4.78;;;;;;;;;;5008942;28;20112;-70
2021/12/17 10:55:40;;;;;;;10.02;4.88;;;;;;;;;;5018647;28;20485;-70
2021/12/17 10:58:09;;;;;;;10.43;4.78;;;;;;;;;;5011718;28;20469;-71
2021/12/17 11:00:43;;;;;;;16.30;5.65;;;;;;;;;;5020173;28;20529;-71
2021/12/17 11:03:12;;;;;;;10.48;5.57;;;;;;;;;;5017131;28;20126;-71
2021/12/17 11:05:43;;;;;;;9.85;5.63;;;;;;;;;;5013101;28;20061;-71
2021/12/17 11:08:28;;;;;;;8.82;4.80;;;;;;;;;;5012624;28;20159;-70
2021/12/17 11:10:58;;;;;;;10.65;5.10;;;;;;;;;;5018064;28;20057;-70
2021/12/17 11:13:27;;;;;;;8.55;4.93;;;;;;;;;;5013303;28;20046;-70
2021/12/17 11:15:55;;;;;;;9.27;4.70;;;;;;;;;;5030172;28;20081;-70
2021/12/17 11:18:26;;;;;;;8.77;4.57;;;;;;;;;;5021099;28;20129;-70
2021/12/17 11:20:56;;;;;;;8.10;4.65;;;;;;;;;;5014153;28;20045;-70
2021/12/17 11:23:27;;;;;;;9.75;4.70;;;;;;;;;;5012070;28;20083;-71
2021/12/17 11:25:56;;;;;;;10.10;4.93;;;;;;;;;;5020900;28;20524;-70
2021/12/17 11:28:24;;;;;;;9.20;4.70;;;;;;;;;;5017094;28;20050;-71
2021/12/17 11:30:53;;;;;;;8.48;4.90;;;;;;;;;;5007778;28;20046;-71
2021/12/17 11:33:22;;;;;;;8.75;4.53;;;;;;;;;;5014915;28;20076;-71
2021/12/17 11:35:51;;;;;;;11.57;5.20;;;;;;;;;;5012481;28;20053;-70
2021/12/17 11:38:22;;;;;;;8.68;5.28;;;;;;;;;;5026999;28;20544;-70
2021/12/17 11:40:54;;;;;;;8.80;4.72;;;;;;;;;;5028692;28;20449;-70
2021/12/17 11:43:35;;;;;;;8.80;5.03;;;;;;;;;;5010869;28;20077;-71
2021/12/17 11:46:07;;;;;;;9.80;4.68;;;;;;;;;;5017603;28;20053;-71
2021/12/17 11:48:36;;;;;;;9.60;4.88;;;;;;;;;;5024694;28;20852;-70
2021/12/17 11:51:09;;;;;;;10.18;5.63;;;;;;;;;;5024173;28;20063;-71
2021/12/17 11:53:41;;;;;;;8.82;4.78;;;;;;;;;;5013977;28;20053;-71
2021/12/17 11:56:11;;;;;;;9.70;5.30;;;;;;;;;;5020374;28;20045;-71
2021/12/17 11:58:44;;;;;;;11.95;5.20;;;;;;;;;;5017473;28;20073;-68
2021/12/17 12:01:13;;;;;;;8.73;4.57;;;;;;;;;;5014198;28;20045;-68
2021/12/17 12:03:42;;;;;;;8.65;4.53;;;;;;;;;;5018839;28;20057;-68
2021/12/17 12:06:31;;;;;;;8.18;4.63;;;;;;;;;;5021937;28;20053;-67
2021/12/17 12:09:04;;;;;;;8.88;4.32;;;;;;;;;;5011484;28;20046;-68
2021/12/17 12:11:34;;;;;;;7.38;4.97;;;;;;;;;;5022204;28;20102;-68
2021/12/17 12:14:03;;;;;;;8.13;4.60;;;;;;;;;;5012141;28;20045;-67
2021/12/17 12:16:31;;;;;;;10.50;5.78;;;;;;;;;;5022587;28;20073;-68
2021/12/17 12:19:08;;;;;;;10.45;4.55;;;;;;;;;;5019815;28;20496;-68
2021/12/17 12:21:37;;;;;;;6.75;4.28;;;;;;;;;;5012814;28;20123;-67
2021/12/17 12:24:11;;;;;;;7.45;4.43;;;;;;;;;;5007259;28;20064;-68
2021/12/17 12:26:44;;;;;;;7.57;4.57;;;;;;;;;;5011090;28;20125;-68
2021/12/17 12:29:14;;;;;;;7.88;4.70;;;;;;;;;;5018707;28;20405;-67
2021/12/17 12:31:48;;;;;;;9.20;4.63;;;;;;;;;;5022794;28;20041;-68
2021/12/17 12:34:17;;;;;;;8.43;4.50;;;;;;;;;;5011298;28;20072;-68
2021/12/17 12:37:04;;;;;;;8.38;4.72;;;;;;;;;;5015666;28;20052;-68
2021/12/17 12:39:35;;;;;;;11.00;4.40;;;;;;;;;;5017480;28;20225;-68
2021/12/17 12:42:07;;;;;;;8.07;4.72;;;;;;;;;;5010453;28;20057;-68
2021/12/17 12:44:54;;;;;;;6.45;3.90;;;;;;;;;;5010251;28;20124;-68
2021/12/17 12:47:37;;;;;;;7.38;4.43;;;;;;;;;;5005036;28;20055;-69
2021/12/17 12:50:07;;;;;;;7.38;4.22;;;;;;;;;;5010388;28;20046;-68
2021/12/17 12:52:38;;;;;;;9.15;4.32;;;;;;;;;;5009913;28;20056;-68
2021/12/17 12:55:09;;;;;;;8.50;5.38;;;;;;;;;;5014165;28;20045;-68
2021/12/17 12:57:40;;;;;;;10.10;5.40;;;;;;;;;;5016198;28;20052;-67
2021/12/17 13:00:10;;;;;;;9.65;4.65;;;;;;;;;;5012818;28;20056;-68
2021/12/17 13:02:39;;;;;;;12.60;4.93;;;;;;;;;;5015906;28;20077;-68
2021/12/17 13:05:09;;;;;;;9.10;4.40;;;;;;;;;;5011410;28;20049;-67
2021/12/17 13:07:38;;;;;;;9.63;5.13;;;;;;;;;;5008650;28;20081;-67
2021/12/17 13:10:08;;;;;;;8.38;4.93;;;;;;;;;;5007890;28;20135;-68
2021/12/17 13:12:38;;;;;;;10.20;5.68;;;;;;;;;;5008071;28;20095;-68
2021/12/17 13:15:19;;;;;;;13.75;6.07;;;;;;;;;;5009863;28;20050;-67
2021/12/17 13:21:01;;;;;;;11.60;5.43;;;;;;;;;;5007860;28;20041;-68
2021/12/17 13:23:37;;;;;;;10.88;5.82;;;;;;;;;;5005291;28;20043;-67
2021/12/17 13:26:10;;;;;;;10.30;5.10;;;;;;;;;;5006257;28;20084;-68
2021/12/17 13:28:53;;;;;;;10.25;5.57;;;;;;;;;;5005139;28;20516;-68
2021/12/17 13:31:37;;;;;;;13.88;5.47;;;;;;;;;;5012719;28;20037;-67
2021/12/17 13:34:13;;;;;;;12.40;5.82;;;;;;;;;;5009370;28;20049;-67
2021/12/17 13:36:51;;;;;;;12.05;6.15;;;;;;;;;;5016328;28;20045;-67
2021/12/17 13:39:20;;;;;;;11.35;5.50;;;;;;;;;;5022044;28;20142;-67
2021/12/17 13:41:49;;;;;;;11.20;5.60;;;;;;;;;;5017217;28;20049;-68
2021/12/17 13:44:33;;;;;;;8.98;5.40;;;;;;;;;;5016960;28;20049;-67
2021/12/17 13:47:09;;;;;;;9.50;5.35;;;;;;;;;;5005656;28;20125;-68
2021/12/17 13:49:37;;;;;;;14.20;5.45;;;;;;;;;;5019213;28;20037;-68
2021/12/17 13:52:06;;;;;;;10.82;5.35;;;;;;;;;;5009663;28;20110;-68
2021/12/17 13:54:35;;;;;;;11.55;5.30;;;;;;;;;;5026298;28;20405;-68
2021/12/17 13:57:05;;;;;;;9.63;4.40;;;;;;;;;;5015189;28;20150;-68
2021/12/17 13:59:36;;;;;;;12.70;5.35;;;;;;;;;;5011171;28;20049;-71
2021/12/17 14:02:08;;;;;;;9.85;4.88;;;;;;;;;;5021698;28;20054;-71
2021/12/17 14:04:37;;;;;;;11.80;5.30;;;;;;;;;;5014193;28;20049;-71
2021/12/17 14:07:06;;;;;;;10.77;5.40;;;;;;;;;;5009514;28;20061;-71
2021/12/17 14:09:35;;;;;;;7.95;4.32;;;;;;;;;;5017173;28;20477;-71
2021/12/17 14:12:11;;;;;;;9.18;4.40;;;;;;;;;;5011073;28;20054;-71
2021/12/17 14:15:02;;;;;;;9.90;4.35;;;;;;;;;;5007419;28;20053;-71
2021/12/17 14:17:35;;;;;;;10.52;5.07;;;;;;;;;;5022388;28;20140;-71
2021/12/17 14:20:10;;;;;;;10.40;4.70;;;;;;;;;;5014638;28;20052;-71
2021/12/17 14:22:39;;;;;;;8.90;4.55;;;;;;;;;;5019485;28;20060;-71
2021/12/17 14:25:25;;;;;;;9.70;4.57;;;;;;;;;;5025850;28;20490;-71
2021/12/17 14:27:54;;;;;;;10.68;4.53;;;;;;;;;;5019734;28;20046;-71
2021/12/17 14:30:33;;;;;;;10.50;5.05;;;;;;;;;;5014069;28;20537;-71
2021/12/17 14:33:07;;;;;;;9.20;4.63;;;;;;;;;;5012370;28;20052;-71
2021/12/17 14:35:47;;;;;;;12.35;5.32;;;;;;;;;;5014005;28;20164;-71
2021/12/17 14:38:18;;;;;;;11.55;5.53;;;;;;;;;;5011769;28;20386;-71
2021/12/17 14:40:56;;;;;;;13.88;6.20;;;;;;;;;;5015635;28;20424;-71
2021/12/17 14:43:33;;;;;;;12.30;6.10;;;;;;;;;;5018175;28;20052;-71
2021/12/17 14:46:14;;;;;;;13.63;6.40;;;;;;;;;;5016234;28;20045;-70
2021/12/17 14:48:55;;;;;;;14.63;6.45;;;;;;;;;;5014560;28;20119;-71
2021/12/17 14:57:37;;;;;;;13.30;6.32;;;;;;;;;;5018217;28;20045;-71
2021/12/17 15:02:59;;;;;;;11.98;6.07;;;;;;;;;;4992770;28;20057;-71
2021/12/17 15:05:29;;;;;;;12.88;5.30;;;;;;;;;;5007529;28;20054;-71
2021/12/17 15:07:58;;;;;;;14.15;6.15;;;;;;;;;;5024537;28;20104;-71
2021/12/17 15:10:27;;;;;;;12.60;5.53;;;;;;;;;;5025504;28;20111;-71
2021/12/17 15:12:57;;;;;;;12.63;5.93;;;;;;;;;;5023018;28;20184;-71
2021/12/17 15:15:26;;;;;;;13.05;6.00;;;;;;;;;;5015664;28;20394;-71
2021/12/17 15:17:57;;;;;;;12.00;6.22;;;;;;;;;;5018927;28;20045;-71
2021/12/17 15:20:27;;;;;;;15.25;6.47;;;;;;;;;;5019086;28;20480;-71
2021/12/17 15:22:59;;;;;;;11.82;5.50;;;;;;;;;;5022912;28;20514;-71
2021/12/17 15:25:29;;;;;;;13.63;5.85;;;;;;;;;;5028655;28;20084;-71
2021/12/17 15:27:59;;;;;;;13.98;6.55;;;;;;;;;;5023982;28;20136;-71
2021/12/17 15:30:28;;;;;;;12.45;5.82;;;;;;;;;;5014024;28;20107;-71
2021/12/17 15:32:58;;;;;;;13.48;6.20;;;;;;;;;;5017171;28;20128;-71
2021/12/17 15:35:27;;;;;;;12.48;5.65;;;;;;;;;;5030191;28;20080;-71
2021/12/17 15:37:56;;;;;;;12.70;6.05;;;;;;;;;;5026562;28;20618;-71
2021/12/17 15:40:29;;;;;;;15.10;6.72;;;;;;;;;;5022997;28;20481;-71
2021/12/17 15:43:02;;;;;;;14.02;6.45;;;;;;;;;;5020703;28;20046;-71
2021/12/17 15:45:31;;;;;;;15.15;6.18;;;;;;;;;;5016565;28;20258;-71
2021/12/17 15:48:01;;;;;;;13.48;6.32;;;;;;;;;;5032131;28;20099;-71
2021/12/17 15:50:49;;;;;;;15.00;6.35;;;;;;;;;;5031300;28;20447;-71
2021/12/17 15:53:18;;;;;;;15.18;7.20;;;;;;;;;;5030790;28;20055;-71
2021/12/17 15:55:47;;;;;;;14.52;6.90;;;;;;;;;;5026782;28;20049;-71
2021/12/17 15:58:15;;;;;;;15.10;7.07;;;;;;;;;;5020258;28;20053;-71
2021/12/17 16:00:48;;;;;;;14.10;6.68;;;;;;;;;;5020240;28;20077;-71
2021/12/17 16:03:26;;;;;;;13.27;6.93;;;;;;;;;;5027893;28;20098;-71
2021/12/17 16:05:55;;;;;;;13.43;6.43;;;;;;;;;;5021146;28;20134;-71
2021/12/17 16:08:23;;;;;;;14.75;6.30;;;;;;;;;;5022068;28;20073;-71
2021/12/17 16:21:53;;;;;;;14.90;6.60;;;;;;;;;;4994992;28;20057;-70
2021/12/17 16:24:22;;;;;;;15.20;7.20;;;;;;;;;;5011439;28;20133;-70
2021/12/17 16:26:50;;;;;;;15.40;7.40;;;;;;;;;;5027001;28;20065;-70
2021/12/17 16:29:18;;;;;;;16.13;6.82;;;;;;;;;;5027311;28;20068;-70
2021/12/17 16:31:48;;;;;;;11.70;6.05;;;;;;;;;;5020577;28;20050;-70
2021/12/17 16:34:18;;;;;;;16.17;7.38;;;;;;;;;;5009575;28;20069;-69
2021/12/17 16:36:46;;;;;;;15.60;8.13;;;;;;;;;;5014025;28;20587;-70
2021/12/17 16:39:16;;;;;;;17.75;8.02;;;;;;;;;;5013843;28;20053;-70
2021/12/17 16:41:44;;;;;;;17.20;8.30;;;;;;;;;;5016063;28;20049;-70
2021/12/17 16:44:16;;;;;;;17.92;7.95;;;;;;;;;;5023084;28;20041;-69
2021/12/17 16:47:04;;;;;;;15.60;7.68;;;;;;;;;;5010387;28;20054;-70
2021/12/17 16:49:34;;;;;;;16.33;8.25;;;;;;;;;;5017710;28;20049;-70
2021/12/17 16:52:05;;;;;;;19.30;7.88;;;;;;;;;;5014384;28;20255;-70
2021/12/17 16:54:34;;;;;;;16.58;7.78;;;;;;;;;;5018765;28;20073;-70
2021/12/17 16:57:02;;;;;;;16.75;7.60;;;;;;;;;;5010461;28;20061;-70
2021/12/17 16:59:31;;;;;;;16.25;7.68;;;;;;;;;;5012913;28;20045;-70
2021/12/17 17:02:00;;;;;;;15.35;6.95;;;;;;;;;;5015576;28;20069;-70
2021/12/17 17:04:29;;;;;;;16.80;7.68;;;;;;;;;;5012474;28;20397;-70
2021/12/17 17:06:59;;;;;;;16.77;7.78;;;;;;;;;;5016047;28;20045;-70
2021/12/17 17:09:29;;;;;;;16.85;7.35;;;;;;;;;;5012427;28;20048;-70
2021/12/17 17:12:02;;;;;;;14.10;6.88;;;;;;;;;;5013536;28;20057;-70
2021/12/17 17:14:32;;;;;;;17.52;7.55;;;;;;;;;;5022487;28;20049;-70
2021/12/17 17:17:01;;;;;;;21.27;7.90;;;;;;;;;;5013191;28;20088;-70
2021/12/17 17:19:30;;;;;;;17.67;7.75;;;;;;;;;;5010075;28;20457;-70
2021/12/17 17:22:00;;;;;;;19.75;7.95;;;;;;;;;;5019002;28;20053;-70
2021/12/17 17:24:31;;;;;;;16.05;8.25;;;;;;;;;;5030120;28;20064;-70